sensor_id;sensor_type;location;lat;lon;timestamp;P1;durP1;ratioP1;P2;durP2;ratioP2
15254;SDS011;7730;49.610;11.136;2024-03-22T00:01:56;16.80;;;10.57;;
15254;SDS011;7730;49.610;11.136;2024-03-22T00:04:22;15.93;;;9.98;;
15254;SDS011;7730;49.610;11.136;2024-03-22T00:06:50;15.68;;;9.40;;
15254;SDS011;7730;49.610;11.136;2024-03-22T00:09:16;15.90;;;9.55;;
15254;SDS011;7730;49.610;11.136;2024-03-22T00:11:43;14.52;;;9.02;;
15254;SDS011;7730;49.610;11.136;2024-03-22T00:14:10;15.73;;;9.27;;
15254;SDS011;7730;49.610;11.136;2024-03-22T00:16:37;17.50;;;10.73;;
15254;SDS011;7730;49.610;11.136;2024-03-22T00:19:03;15.73;;;10.02;;
15254;SDS011;7730;49.610;11.136;2024-03-22T00:21:31;15.85;;;10.32;;
15254;SDS011;7730;49.610;11.136;2024-03-22T00:23:58;16.52;;;10.07;;
15254;SDS011;7730;49.610;11.136;2024-03-22T00:26:26;17.83;;;10.90;;
15254;SDS011;7730;49.610;11.136;2024-03-22T00:28:52;15.82;;;10.02;;
15254;SDS011;7730;49.610;11.136;2024-03-22T00:31:19;16.63;;;9.25;;
15254;SDS011;7730;49.610;11.136;2024-03-22T00:33:45;16.45;;;10.23;;
15254;SDS011;7730;49.610;11.136;2024-03-22T00:36:12;15.07;;;9.27;;
15254;SDS011;7730;49.610;11.136;2024-03-22T00:38:38;15.30;;;9.60;;
15254;SDS011;7730;49.610;11.136;2024-03-22T00:41:06;15.07;;;9.40;;
15254;SDS011;7730;49.610;11.136;2024-03-22T00:43:32;15.48;;;9.13;;
15254;SDS011;7730;49.610;11.136;2024-03-22T00:45:59;15.00;;;9.13;;
15254;SDS011;7730;49.610;11.136;2024-03-22T00:48:26;14.88;;;9.20;;
15254;SDS011;7730;49.610;11.136;2024-03-22T00:50:53;15.35;;;8.77;;
15254;SDS011;7730;49.610;11.136;2024-03-22T00:53:19;16.23;;;9.30;;
15254;SDS011;7730;49.610;11.136;2024-03-22T00:55:46;14.95;;;9.02;;
15254;SDS011;7730;49.610;11.136;2024-03-22T00:58:17;14.25;;;8.50;;
15254;SDS011;7730;49.610;11.136;2024-03-22T01:00:44;13.48;;;8.30;;
15254;SDS011;7730;49.610;11.136;2024-03-22T01:03:10;15.55;;;9.00;;
15254;SDS011;7730;49.610;11.136;2024-03-22T01:05:37;13.85;;;8.55;;
15254;SDS011;7730;49.610;11.136;2024-03-22T01:08:05;14.30;;;7.88;;
15254;SDS011;7730;49.610;11.136;2024-03-22T01:10:32;12.82;;;6.82;;
15254;SDS011;7730;49.610;11.136;2024-03-22T01:12:59;13.20;;;7.28;;
15254;SDS011;7730;49.610;11.136;2024-03-22T01:15:27;13.43;;;7.32;;
15254;SDS011;7730;49.610;11.136;2024-03-22T01:17:53;12.90;;;7.60;;
15254;SDS011;7730;49.610;11.136;2024-03-22T01:20:20;13.85;;;7.28;;
15254;SDS011;7730;49.610;11.136;2024-03-22T01:22:46;13.98;;;7.90;;
15254;SDS011;7730;49.610;11.136;2024-03-22T01:25:14;13.57;;;7.47;;
15254;SDS011;7730;49.610;11.136;2024-03-22T01:27:40;13.73;;;8.00;;
15254;SDS011;7730;49.610;11.136;2024-03-22T01:30:07;15.02;;;8.60;;
15254;SDS011;7730;49.610;11.136;2024-03-22T01:32:36;14.60;;;8.68;;
15254;SDS011;7730;49.610;11.136;2024-03-22T01:35:03;14.55;;;8.52;;
15254;SDS011;7730;49.610;11.136;2024-03-22T01:37:29;13.98;;;8.27;;
15254;SDS011;7730;49.610;11.136;2024-03-22T01:39:56;14.05;;;8.25;;
15254;SDS011;7730;49.610;11.136;2024-03-22T01:42:22;15.00;;;8.40;;
15254;SDS011;7730;49.610;11.136;2024-03-22T01:44:49;13.70;;;8.13;;
15254;SDS011;7730;49.610;11.136;2024-03-22T01:47:16;13.38;;;7.65;;
15254;SDS011;7730;49.610;11.136;2024-03-22T01:49:44;14.20;;;8.45;;
15254;SDS011;7730;49.610;11.136;2024-03-22T01:52:10;14.63;;;8.68;;
15254;SDS011;7730;49.610;11.136;2024-03-22T01:54:37;14.90;;;8.20;;
15254;SDS011;7730;49.610;11.136;2024-03-22T01:57:03;14.38;;;8.10;;
15254;SDS011;7730;49.610;11.136;2024-03-22T01:59:30;13.27;;;7.40;;
15254;SDS011;7730;49.610;11.136;2024-03-22T02:01:57;13.95;;;8.20;;
15254;SDS011;7730;49.610;11.136;2024-03-22T02:04:24;14.50;;;7.65;;
15254;SDS011;7730;49.610;11.136;2024-03-22T02:06:51;14.88;;;8.07;;
15254;SDS011;7730;49.610;11.136;2024-03-22T02:09:18;13.70;;;7.95;;
15254;SDS011;7730;49.610;11.136;2024-03-22T02:11:46;16.58;;;10.90;;
15254;SDS011;7730;49.610;11.136;2024-03-22T02:14:13;15.38;;;8.80;;
15254;SDS011;7730;49.610;11.136;2024-03-22T02:16:39;14.38;;;8.20;;
15254;SDS011;7730;49.610;11.136;2024-03-22T02:19:06;12.80;;;6.82;;
15254;SDS011;7730;49.610;11.136;2024-03-22T02:21:32;12.07;;;6.63;;
15254;SDS011;7730;49.610;11.136;2024-03-22T02:24:01;13.20;;;7.25;;
15254;SDS011;7730;49.610;11.136;2024-03-22T02:26:27;13.13;;;6.97;;
15254;SDS011;7730;49.610;11.136;2024-03-22T02:28:54;13.23;;;6.97;;
15254;SDS011;7730;49.610;11.136;2024-03-22T02:31:20;13.20;;;7.38;;
15254;SDS011;7730;49.610;11.136;2024-03-22T02:33:47;13.70;;;7.07;;
15254;SDS011;7730;49.610;11.136;2024-03-22T02:36:13;13.52;;;7.22;;
15254;SDS011;7730;49.610;11.136;2024-03-22T02:38:40;13.63;;;7.43;;
15254;SDS011;7730;49.610;11.136;2024-03-22T02:41:07;14.80;;;8.07;;
15254;SDS011;7730;49.610;11.136;2024-03-22T02:43:34;14.15;;;8.50;;
15254;SDS011;7730;49.610;11.136;2024-03-22T02:46:00;14.55;;;8.70;;
15254;SDS011;7730;49.610;11.136;2024-03-22T02:48:27;16.20;;;9.13;;
15254;SDS011;7730;49.610;11.136;2024-03-22T02:50:55;14.27;;;8.38;;
15254;SDS011;7730;49.610;11.136;2024-03-22T02:53:22;14.27;;;8.80;;
15254;SDS011;7730;49.610;11.136;2024-03-22T02:55:48;14.70;;;8.15;;
15254;SDS011;7730;49.610;11.136;2024-03-22T02:58:16;13.85;;;7.55;;
15254;SDS011;7730;49.610;11.136;2024-03-22T03:00:42;13.57;;;7.28;;
15254;SDS011;7730;49.610;11.136;2024-03-22T03:03:09;12.63;;;6.75;;
15254;SDS011;7730;49.610;11.136;2024-03-22T03:05:35;12.95;;;6.90;;
15254;SDS011;7730;49.610;11.136;2024-03-22T03:08:03;12.65;;;7.13;;
15254;SDS011;7730;49.610;11.136;2024-03-22T03:10:29;12.88;;;7.35;;
15254;SDS011;7730;49.610;11.136;2024-03-22T03:12:56;12.80;;;7.13;;
15254;SDS011;7730;49.610;11.136;2024-03-22T03:15:23;13.20;;;7.00;;
15254;SDS011;7730;49.610;11.136;2024-03-22T03:17:50;11.98;;;6.80;;
15254;SDS011;7730;49.610;11.136;2024-03-22T03:20:17;14.05;;;7.68;;
15254;SDS011;7730;49.610;11.136;2024-03-22T03:22:43;11.82;;;6.43;;
15254;SDS011;7730;49.610;11.136;2024-03-22T03:25:10;13.20;;;7.47;;
15254;SDS011;7730;49.610;11.136;2024-03-22T03:27:36;12.77;;;6.90;;
15254;SDS011;7730;49.610;11.136;2024-03-22T03:30:04;13.60;;;7.13;;
15254;SDS011;7730;49.610;11.136;2024-03-22T03:32:31;13.25;;;7.20;;
15254;SDS011;7730;49.610;11.136;2024-03-22T03:34:58;13.68;;;7.70;;
15254;SDS011;7730;49.610;11.136;2024-03-22T03:37:24;12.60;;;7.00;;
15254;SDS011;7730;49.610;11.136;2024-03-22T03:39:51;13.30;;;6.70;;
15254;SDS011;7730;49.610;11.136;2024-03-22T03:42:17;14.05;;;6.90;;
15254;SDS011;7730;49.610;11.136;2024-03-22T03:44:44;14.00;;;7.82;;
15254;SDS011;7730;49.610;11.136;2024-03-22T03:47:10;15.48;;;8.23;;
15254;SDS011;7730;49.610;11.136;2024-03-22T03:49:39;14.10;;;8.07;;
15254;SDS011;7730;49.610;11.136;2024-03-22T03:52:05;13.50;;;7.90;;
15254;SDS011;7730;49.610;11.136;2024-03-22T03:54:32;13.80;;;7.90;;
15254;SDS011;7730;49.610;11.136;2024-03-22T03:56:58;13.10;;;7.68;;
15254;SDS011;7730;49.610;11.136;2024-03-22T03:59:25;13.70;;;7.32;;
15254;SDS011;7730;49.610;11.136;2024-03-22T04:01:51;13.82;;;7.70;;
15254;SDS011;7730;49.610;11.136;2024-03-22T04:04:18;13.70;;;7.90;;
15254;SDS011;7730;49.610;11.136;2024-03-22T04:06:45;16.48;;;7.97;;
15254;SDS011;7730;49.610;11.136;2024-03-22T04:09:12;14.32;;;7.78;;
15254;SDS011;7730;49.610;11.136;2024-03-22T04:11:38;13.90;;;8.02;;
15254;SDS011;7730;49.610;11.136;2024-03-22T04:14:05;16.02;;;8.52;;
15254;SDS011;7730;49.610;11.136;2024-03-22T04:16:31;14.40;;;7.72;;
15254;SDS011;7730;49.610;11.136;2024-03-22T04:18:58;16.75;;;8.80;;
15254;SDS011;7730;49.610;11.136;2024-03-22T04:21:24;14.98;;;8.40;;
15254;SDS011;7730;49.610;11.136;2024-03-22T04:23:52;17.10;;;10.13;;
15254;SDS011;7730;49.610;11.136;2024-03-22T04:26:18;16.40;;;9.98;;
15254;SDS011;7730;49.610;11.136;2024-03-22T04:28:46;16.70;;;9.05;;
15254;SDS011;7730;49.610;11.136;2024-03-22T04:31:12;15.30;;;8.82;;
15254;SDS011;7730;49.610;11.136;2024-03-22T04:33:39;13.80;;;7.85;;
15254;SDS011;7730;49.610;11.136;2024-03-22T04:36:05;14.88;;;7.60;;
15254;SDS011;7730;49.610;11.136;2024-03-22T04:38:34;13.80;;;7.75;;
15254;SDS011;7730;49.610;11.136;2024-03-22T04:41:03;13.32;;;6.97;;
15254;SDS011;7730;49.610;11.136;2024-03-22T04:43:30;13.90;;;7.50;;
15254;SDS011;7730;49.610;11.136;2024-03-22T04:45:57;14.35;;;7.43;;
15254;SDS011;7730;49.610;11.136;2024-03-22T04:48:23;14.10;;;7.55;;
15254;SDS011;7730;49.610;11.136;2024-03-22T04:50:50;15.15;;;7.43;;
15254;SDS011;7730;49.610;11.136;2024-03-22T04:53:17;14.77;;;7.97;;
15254;SDS011;7730;49.610;11.136;2024-03-22T04:55:44;18.77;;;9.45;;
15254;SDS011;7730;49.610;11.136;2024-03-22T04:58:13;15.93;;;8.63;;
15254;SDS011;7730;49.610;11.136;2024-03-22T05:00:40;13.98;;;7.63;;
15254;SDS011;7730;49.610;11.136;2024-03-22T05:03:06;14.68;;;7.57;;
15254;SDS011;7730;49.610;11.136;2024-03-22T05:05:33;15.35;;;8.00;;
15254;SDS011;7730;49.610;11.136;2024-03-22T05:08:01;14.93;;;8.20;;
15254;SDS011;7730;49.610;11.136;2024-03-22T05:10:29;14.40;;;7.95;;
15254;SDS011;7730;49.610;11.136;2024-03-22T05:12:55;14.48;;;7.50;;
15254;SDS011;7730;49.610;11.136;2024-03-22T05:15:28;13.70;;;6.95;;
15254;SDS011;7730;49.610;11.136;2024-03-22T05:17:56;13.10;;;6.60;;
15254;SDS011;7730;49.610;11.136;2024-03-22T05:20:24;12.82;;;6.30;;
15254;SDS011;7730;49.610;11.136;2024-03-22T05:22:50;13.48;;;6.90;;
15254;SDS011;7730;49.610;11.136;2024-03-22T05:25:17;13.75;;;6.75;;
15254;SDS011;7730;49.610;11.136;2024-03-22T05:27:43;14.77;;;6.60;;
15254;SDS011;7730;49.610;11.136;2024-03-22T05:30:12;12.88;;;6.53;;
15254;SDS011;7730;49.610;11.136;2024-03-22T05:32:39;14.98;;;6.20;;
15254;SDS011;7730;49.610;11.136;2024-03-22T05:35:07;14.18;;;6.65;;
15254;SDS011;7730;49.610;11.136;2024-03-22T05:37:33;13.13;;;6.68;;
15254;SDS011;7730;49.610;11.136;2024-03-22T05:40:00;13.23;;;6.28;;
15254;SDS011;7730;49.610;11.136;2024-03-22T05:42:29;12.23;;;6.03;;
15254;SDS011;7730;49.610;11.136;2024-03-22T05:44:56;12.75;;;5.85;;
15254;SDS011;7730;49.610;11.136;2024-03-22T05:47:23;12.57;;;6.32;;
15254;SDS011;7730;49.610;11.136;2024-03-22T05:49:52;12.60;;;5.63;;
15254;SDS011;7730;49.610;11.136;2024-03-22T05:52:18;12.70;;;6.47;;
15254;SDS011;7730;49.610;11.136;2024-03-22T05:54:48;15.45;;;6.95;;
15254;SDS011;7730;49.610;11.136;2024-03-22T05:57:14;13.15;;;6.50;;
15254;SDS011;7730;49.610;11.136;2024-03-22T05:59:41;13.40;;;6.20;;
15254;SDS011;7730;49.610;11.136;2024-03-22T06:02:07;14.18;;;6.43;;
15254;SDS011;7730;49.610;11.136;2024-03-22T06:04:34;12.80;;;6.70;;
15254;SDS011;7730;49.610;11.136;2024-03-22T06:07:02;12.60;;;6.38;;
15254;SDS011;7730;49.610;11.136;2024-03-22T06:09:31;14.43;;;6.88;;
15254;SDS011;7730;49.610;11.136;2024-03-22T06:12:02;13.70;;;7.22;;
15254;SDS011;7730;49.610;11.136;2024-03-22T06:14:30;14.00;;;6.80;;
15254;SDS011;7730;49.610;11.136;2024-03-22T06:16:56;13.20;;;6.57;;
15254;SDS011;7730;49.610;11.136;2024-03-22T06:19:23;13.48;;;6.97;;
15254;SDS011;7730;49.610;11.136;2024-03-22T06:21:50;14.35;;;6.60;;
15254;SDS011;7730;49.610;11.136;2024-03-22T06:24:21;14.68;;;6.93;;
15254;SDS011;7730;49.610;11.136;2024-03-22T06:26:47;13.82;;;7.38;;
15254;SDS011;7730;49.610;11.136;2024-03-22T06:29:14;15.10;;;8.45;;
15254;SDS011;7730;49.610;11.136;2024-03-22T06:31:41;15.05;;;8.73;;
15254;SDS011;7730;49.610;11.136;2024-03-22T06:34:08;17.60;;;10.85;;
15254;SDS011;7730;49.610;11.136;2024-03-22T06:36:34;18.13;;;10.05;;
15254;SDS011;7730;49.610;11.136;2024-03-22T06:39:04;16.35;;;9.07;;
15254;SDS011;7730;49.610;11.136;2024-03-22T06:41:33;18.63;;;9.52;;
15254;SDS011;7730;49.610;11.136;2024-03-22T06:44:00;16.50;;;9.18;;
15254;SDS011;7730;49.610;11.136;2024-03-22T06:46:26;18.75;;;9.35;;
15254;SDS011;7730;49.610;11.136;2024-03-22T06:48:54;16.90;;;9.48;;
15254;SDS011;7730;49.610;11.136;2024-03-22T06:51:20;17.27;;;9.43;;
15254;SDS011;7730;49.610;11.136;2024-03-22T06:53:47;17.25;;;9.45;;
15254;SDS011;7730;49.610;11.136;2024-03-22T06:56:14;17.33;;;10.27;;
15254;SDS011;7730;49.610;11.136;2024-03-22T06:58:43;17.42;;;9.68;;
15254;SDS011;7730;49.610;11.136;2024-03-22T07:01:10;17.52;;;9.75;;
15254;SDS011;7730;49.610;11.136;2024-03-22T07:03:36;15.95;;;9.30;;
15254;SDS011;7730;49.610;11.136;2024-03-22T07:06:05;17.88;;;10.20;;
15254;SDS011;7730;49.610;11.136;2024-03-22T07:08:33;17.83;;;10.70;;
15254;SDS011;7730;49.610;11.136;2024-03-22T07:11:00;17.33;;;10.30;;
15254;SDS011;7730;49.610;11.136;2024-03-22T07:13:30;18.33;;;10.57;;
15254;SDS011;7730;49.610;11.136;2024-03-22T07:15:59;18.27;;;10.18;;
15254;SDS011;7730;49.610;11.136;2024-03-22T07:18:25;19.05;;;11.02;;
15254;SDS011;7730;49.610;11.136;2024-03-22T07:20:52;17.15;;;10.10;;
15254;SDS011;7730;49.610;11.136;2024-03-22T07:23:18;16.85;;;9.95;;
15254;SDS011;7730;49.610;11.136;2024-03-22T07:25:45;17.55;;;10.57;;
15254;SDS011;7730;49.610;11.136;2024-03-22T07:28:13;17.25;;;10.40;;
15254;SDS011;7730;49.610;11.136;2024-03-22T07:30:42;18.17;;;10.30;;
15254;SDS011;7730;49.610;11.136;2024-03-22T07:33:11;17.88;;;10.02;;
15254;SDS011;7730;49.610;11.136;2024-03-22T07:35:41;17.27;;;10.52;;
15254;SDS011;7730;49.610;11.136;2024-03-22T07:38:07;17.52;;;10.02;;
15254;SDS011;7730;49.610;11.136;2024-03-22T07:40:36;16.63;;;10.05;;
15254;SDS011;7730;49.610;11.136;2024-03-22T07:43:02;16.48;;;9.88;;
15254;SDS011;7730;49.610;11.136;2024-03-22T07:45:32;18.17;;;10.73;;
15254;SDS011;7730;49.610;11.136;2024-03-22T07:47:58;17.33;;;9.88;;
15254;SDS011;7730;49.610;11.136;2024-03-22T07:50:28;17.48;;;9.75;;
15254;SDS011;7730;49.610;11.136;2024-03-22T07:52:54;16.88;;;9.82;;
15254;SDS011;7730;49.610;11.136;2024-03-22T07:55:21;17.55;;;10.05;;
15254;SDS011;7730;49.610;11.136;2024-03-22T07:57:47;17.60;;;9.57;;
15254;SDS011;7730;49.610;11.136;2024-03-22T08:00:15;16.08;;;9.52;;
15254;SDS011;7730;49.610;11.136;2024-03-22T08:02:41;16.35;;;9.48;;
15254;SDS011;7730;49.610;11.136;2024-03-22T08:05:09;16.63;;;9.55;;
15254;SDS011;7730;49.610;11.136;2024-03-22T08:07:37;16.67;;;9.25;;
15254;SDS011;7730;49.610;11.136;2024-03-22T08:10:06;16.85;;;9.60;;
15254;SDS011;7730;49.610;11.136;2024-03-22T08:12:32;16.30;;;9.10;;
15254;SDS011;7730;49.610;11.136;2024-03-22T08:14:59;17.45;;;9.70;;
15254;SDS011;7730;49.610;11.136;2024-03-22T08:17:27;16.58;;;9.35;;
15254;SDS011;7730;49.610;11.136;2024-03-22T08:19:54;15.75;;;9.30;;
15254;SDS011;7730;49.610;11.136;2024-03-22T08:22:20;15.43;;;9.05;;
15254;SDS011;7730;49.610;11.136;2024-03-22T08:24:48;17.10;;;9.40;;
15254;SDS011;7730;49.610;11.136;2024-03-22T08:27:15;17.33;;;9.52;;
15254;SDS011;7730;49.610;11.136;2024-03-22T08:29:42;15.00;;;8.57;;
15254;SDS011;7730;49.610;11.136;2024-03-22T08:32:08;17.02;;;9.30;;
15254;SDS011;7730;49.610;11.136;2024-03-22T08:34:38;15.98;;;8.90;;
15254;SDS011;7730;49.610;11.136;2024-03-22T08:37:04;15.25;;;8.65;;
15254;SDS011;7730;49.610;11.136;2024-03-22T08:39:31;15.60;;;8.65;;
15254;SDS011;7730;49.610;11.136;2024-03-22T08:41:58;16.05;;;8.80;;
15254;SDS011;7730;49.610;11.136;2024-03-22T08:44:26;17.98;;;8.65;;
15254;SDS011;7730;49.610;11.136;2024-03-22T08:46:52;16.90;;;9.13;;
15254;SDS011;7730;49.610;11.136;2024-03-22T08:49:20;16.70;;;8.82;;
15254;SDS011;7730;49.610;11.136;2024-03-22T08:51:46;16.88;;;8.52;;
15254;SDS011;7730;49.610;11.136;2024-03-22T08:54:13;17.13;;;9.10;;
15254;SDS011;7730;49.610;11.136;2024-03-22T08:56:39;16.13;;;8.82;;
15254;SDS011;7730;49.610;11.136;2024-03-22T08:59:08;15.85;;;8.77;;
15254;SDS011;7730;49.610;11.136;2024-03-22T09:01:35;15.80;;;9.18;;
15254;SDS011;7730;49.610;11.136;2024-03-22T09:04:02;16.65;;;8.88;;
15254;SDS011;7730;49.610;11.136;2024-03-22T09:06:28;16.55;;;9.40;;
15254;SDS011;7730;49.610;11.136;2024-03-22T09:08:56;16.70;;;9.27;;
15254;SDS011;7730;49.610;11.136;2024-03-22T09:11:22;17.50;;;9.48;;
15254;SDS011;7730;49.610;11.136;2024-03-22T09:13:52;17.70;;;9.43;;
15254;SDS011;7730;49.610;11.136;2024-03-22T09:16:20;16.73;;;9.10;;
15254;SDS011;7730;49.610;11.136;2024-03-22T09:18:49;17.30;;;9.88;;
15254;SDS011;7730;49.610;11.136;2024-03-22T09:21:15;16.33;;;9.23;;
15254;SDS011;7730;49.610;11.136;2024-03-22T09:23:42;17.05;;;9.68;;
15254;SDS011;7730;49.610;11.136;2024-03-22T09:26:08;17.20;;;9.25;;
15254;SDS011;7730;49.610;11.136;2024-03-22T09:28:35;16.02;;;8.80;;
15254;SDS011;7730;49.610;11.136;2024-03-22T09:31:03;16.08;;;9.38;;
15254;SDS011;7730;49.610;11.136;2024-03-22T09:33:39;17.50;;;9.40;;
15254;SDS011;7730;49.610;11.136;2024-03-22T09:36:05;17.63;;;9.32;;
15254;SDS011;7730;49.610;11.136;2024-03-22T09:38:32;15.80;;;9.15;;
15254;SDS011;7730;49.610;11.136;2024-03-22T09:40:59;17.13;;;9.05;;
15254;SDS011;7730;49.610;11.136;2024-03-22T09:43:26;17.08;;;9.02;;
15254;SDS011;7730;49.610;11.136;2024-03-22T09:45:53;15.80;;;9.15;;
15254;SDS011;7730;49.610;11.136;2024-03-22T09:48:20;15.88;;;8.40;;
15254;SDS011;7730;49.610;11.136;2024-03-22T09:50:49;16.10;;;9.35;;
15254;SDS011;7730;49.610;11.136;2024-03-22T09:53:18;16.65;;;8.93;;
15254;SDS011;7730;49.610;11.136;2024-03-22T09:55:44;17.70;;;9.43;;
15254;SDS011;7730;49.610;11.136;2024-03-22T09:58:11;16.48;;;9.30;;
15254;SDS011;7730;49.610;11.136;2024-03-22T10:00:37;16.67;;;9.80;;
15254;SDS011;7730;49.610;11.136;2024-03-22T10:03:09;16.15;;;9.52;;
15254;SDS011;7730;49.610;11.136;2024-03-22T10:05:35;17.58;;;9.38;;
15254;SDS011;7730;49.610;11.136;2024-03-22T10:08:04;16.30;;;9.35;;
15254;SDS011;7730;49.610;11.136;2024-03-22T10:10:30;17.95;;;9.00;;
15254;SDS011;7730;49.610;11.136;2024-03-22T10:12:59;17.65;;;9.00;;
15254;SDS011;7730;49.610;11.136;2024-03-22T10:15:26;16.10;;;8.20;;
15254;SDS011;7730;49.610;11.136;2024-03-22T10:17:53;15.95;;;8.73;;
15254;SDS011;7730;49.610;11.136;2024-03-22T10:20:21;15.93;;;8.73;;
15254;SDS011;7730;49.610;11.136;2024-03-22T10:22:54;16.95;;;9.15;;
15254;SDS011;7730;49.610;11.136;2024-03-22T10:25:22;16.75;;;9.27;;
15254;SDS011;7730;49.610;11.136;2024-03-22T10:27:50;18.23;;;9.55;;
15254;SDS011;7730;49.610;11.136;2024-03-22T10:30:16;15.70;;;8.55;;
15254;SDS011;7730;49.610;11.136;2024-03-22T10:32:51;15.27;;;8.18;;
15254;SDS011;7730;49.610;11.136;2024-03-22T10:35:17;15.43;;;8.13;;
15254;SDS011;7730;49.610;11.136;2024-03-22T10:37:44;14.43;;;7.50;;
15254;SDS011;7730;49.610;11.136;2024-03-22T10:40:10;14.95;;;7.45;;
15254;SDS011;7730;49.610;11.136;2024-03-22T10:42:40;14.55;;;7.25;;
15254;SDS011;7730;49.610;11.136;2024-03-22T10:45:07;14.38;;;7.13;;
15254;SDS011;7730;49.610;11.136;2024-03-22T10:47:35;14.57;;;7.70;;
15254;SDS011;7730;49.610;11.136;2024-03-22T10:50:05;14.02;;;7.13;;
15254;SDS011;7730;49.610;11.136;2024-03-22T10:52:33;14.65;;;7.45;;
15254;SDS011;7730;49.610;11.136;2024-03-22T10:55:00;13.68;;;7.05;;
15254;SDS011;7730;49.610;11.136;2024-03-22T10:57:29;14.32;;;7.28;;
15254;SDS011;7730;49.610;11.136;2024-03-22T10:59:59;13.63;;;6.53;;
15254;SDS011;7730;49.610;11.136;2024-03-22T11:02:27;16.33;;;7.55;;
15254;SDS011;7730;49.610;11.136;2024-03-22T11:04:54;12.98;;;6.57;;
15254;SDS011;7730;49.610;11.136;2024-03-22T11:07:22;14.57;;;7.07;;
15254;SDS011;7730;49.610;11.136;2024-03-22T11:09:55;12.85;;;6.50;;
15254;SDS011;7730;49.610;11.136;2024-03-22T11:12:23;14.10;;;6.88;;
15254;SDS011;7730;49.610;11.136;2024-03-22T11:14:50;14.35;;;6.88;;
15254;SDS011;7730;49.610;11.136;2024-03-22T11:17:22;14.90;;;6.57;;
15254;SDS011;7730;49.610;11.136;2024-03-22T11:19:50;13.88;;;6.70;;
15254;SDS011;7730;49.610;11.136;2024-03-22T11:22:17;13.27;;;6.30;;
15254;SDS011;7730;49.610;11.136;2024-03-22T11:24:44;13.77;;;6.55;;
15254;SDS011;7730;49.610;11.136;2024-03-22T11:27:11;13.52;;;6.70;;
15254;SDS011;7730;49.610;11.136;2024-03-22T11:29:37;12.73;;;6.60;;
15254;SDS011;7730;49.610;11.136;2024-03-22T11:32:08;14.43;;;6.70;;
15254;SDS011;7730;49.610;11.136;2024-03-22T11:34:36;14.27;;;6.50;;
15254;SDS011;7730;49.610;11.136;2024-03-22T11:37:04;19.92;;;7.75;;
15254;SDS011;7730;49.610;11.136;2024-03-22T11:39:30;18.40;;;6.97;;
15254;SDS011;7730;49.610;11.136;2024-03-22T11:41:57;12.90;;;6.10;;
15254;SDS011;7730;49.610;11.136;2024-03-22T11:44:23;13.20;;;6.40;;
15254;SDS011;7730;49.610;11.136;2024-03-22T11:46:51;13.65;;;6.95;;
15254;SDS011;7730;49.610;11.136;2024-03-22T11:49:17;14.02;;;5.78;;
15254;SDS011;7730;49.610;11.136;2024-03-22T11:51:46;23.83;;;7.82;;
15254;SDS011;7730;49.610;11.136;2024-03-22T11:54:12;13.00;;;6.63;;
15254;SDS011;7730;49.610;11.136;2024-03-22T11:56:39;11.15;;;5.00;;
15254;SDS011;7730;49.610;11.136;2024-03-22T11:59:06;12.20;;;5.95;;
15254;SDS011;7730;49.610;11.136;2024-03-22T12:01:33;12.75;;;5.78;;
15254;SDS011;7730;49.610;11.136;2024-03-22T12:03:59;12.63;;;5.35;;
15254;SDS011;7730;49.610;11.136;2024-03-22T12:06:26;12.88;;;5.43;;
15254;SDS011;7730;49.610;11.136;2024-03-22T12:08:53;11.23;;;5.10;;
15254;SDS011;7730;49.610;11.136;2024-03-22T12:11:20;12.23;;;5.18;;
15254;SDS011;7730;49.610;11.136;2024-03-22T12:13:46;10.43;;;4.45;;
15254;SDS011;7730;49.610;11.136;2024-03-22T12:16:13;10.95;;;4.55;;
15254;SDS011;7730;49.610;11.136;2024-03-22T12:18:40;9.93;;;4.53;;
15254;SDS011;7730;49.610;11.136;2024-03-22T12:21:07;10.52;;;4.50;;
15254;SDS011;7730;49.610;11.136;2024-03-22T12:23:33;11.48;;;4.95;;
15254;SDS011;7730;49.610;11.136;2024-03-22T12:26:01;10.45;;;4.63;;
15254;SDS011;7730;49.610;11.136;2024-03-22T12:28:28;12.10;;;4.72;;
15254;SDS011;7730;49.610;11.136;2024-03-22T12:30:55;11.20;;;4.88;;
15254;SDS011;7730;49.610;11.136;2024-03-22T12:33:21;11.68;;;4.28;;
15254;SDS011;7730;49.610;11.136;2024-03-22T12:35:48;10.13;;;3.72;;
15254;SDS011;7730;49.610;11.136;2024-03-22T12:38:14;5.90;;;2.90;;
15254;SDS011;7730;49.610;11.136;2024-03-22T12:40:42;6.95;;;2.70;;
15254;SDS011;7730;49.610;11.136;2024-03-22T12:43:12;7.80;;;2.78;;
15254;SDS011;7730;49.610;11.136;2024-03-22T12:45:39;8.27;;;2.90;;
15254;SDS011;7730;49.610;11.136;2024-03-22T12:48:05;7.25;;;2.90;;
15254;SDS011;7730;49.610;11.136;2024-03-22T12:50:33;5.60;;;2.90;;
15254;SDS011;7730;49.610;11.136;2024-03-22T12:53:00;5.93;;;2.83;;
15254;SDS011;7730;49.610;11.136;2024-03-22T12:55:27;6.13;;;2.90;;
15254;SDS011;7730;49.610;11.136;2024-03-22T12:57:56;9.05;;;3.13;;
15254;SDS011;7730;49.610;11.136;2024-03-22T13:00:24;23.90;;;4.30;;
15254;SDS011;7730;49.610;11.136;2024-03-22T13:02:50;6.65;;;3.10;;
15254;SDS011;7730;49.610;11.136;2024-03-22T13:05:17;7.60;;;3.00;;
15254;SDS011;7730;49.610;11.136;2024-03-22T13:07:43;9.75;;;3.05;;
15254;SDS011;7730;49.610;11.136;2024-03-22T13:10:10;7.10;;;2.70;;
15254;SDS011;7730;49.610;11.136;2024-03-22T13:12:37;13.02;;;3.28;;
15254;SDS011;7730;49.610;11.136;2024-03-22T13:15:04;7.03;;;3.13;;
15254;SDS011;7730;49.610;11.136;2024-03-22T13:17:32;9.45;;;2.97;;
15254;SDS011;7730;49.610;11.136;2024-03-22T13:19:59;5.85;;;2.55;;
15254;SDS011;7730;49.610;11.136;2024-03-22T13:22:25;8.82;;;2.90;;
15254;SDS011;7730;49.610;11.136;2024-03-22T13:24:52;11.23;;;2.90;;
15254;SDS011;7730;49.610;11.136;2024-03-22T13:27:18;6.05;;;2.53;;
15254;SDS011;7730;49.610;11.136;2024-03-22T13:29:47;6.72;;;2.47;;
15254;SDS011;7730;49.610;11.136;2024-03-22T13:32:13;7.35;;;2.40;;
15254;SDS011;7730;49.610;11.136;2024-03-22T13:34:42;4.38;;;2.20;;
15254;SDS011;7730;49.610;11.136;2024-03-22T13:37:08;3.85;;;1.80;;
15254;SDS011;7730;49.610;11.136;2024-03-22T13:39:35;4.22;;;2.10;;
15254;SDS011;7730;49.610;11.136;2024-03-22T13:42:01;4.63;;;2.45;;
15254;SDS011;7730;49.610;11.136;2024-03-22T13:44:28;4.85;;;2.20;;
15254;SDS011;7730;49.610;11.136;2024-03-22T13:46:54;5.85;;;2.08;;
15254;SDS011;7730;49.610;11.136;2024-03-22T13:49:21;4.15;;;1.63;;
15254;SDS011;7730;49.610;11.136;2024-03-22T13:51:50;5.03;;;2.38;;
15254;SDS011;7730;49.610;11.136;2024-03-22T13:54:17;7.25;;;2.00;;
15254;SDS011;7730;49.610;11.136;2024-03-22T13:56:43;7.32;;;1.98;;
15254;SDS011;7730;49.610;11.136;2024-03-22T13:59:10;8.95;;;2.20;;
15254;SDS011;7730;49.610;11.136;2024-03-22T14:01:37;10.60;;;2.30;;
15254;SDS011;7730;49.610;11.136;2024-03-22T14:04:06;10.73;;;2.20;;
15254;SDS011;7730;49.610;11.136;2024-03-22T14:06:33;7.47;;;2.22;;
15254;SDS011;7730;49.610;11.136;2024-03-22T14:09:01;6.15;;;2.20;;
15254;SDS011;7730;49.610;11.136;2024-03-22T14:11:28;5.93;;;2.30;;
15254;SDS011;7730;49.610;11.136;2024-03-22T14:13:56;4.88;;;2.15;;
15254;SDS011;7730;49.610;11.136;2024-03-22T14:16:22;5.57;;;2.63;;
15254;SDS011;7730;49.610;11.136;2024-03-22T14:18:49;5.47;;;2.55;;
15254;SDS011;7730;49.610;11.136;2024-03-22T14:21:16;4.75;;;2.38;;
15254;SDS011;7730;49.610;11.136;2024-03-22T14:23:44;5.47;;;2.45;;
15254;SDS011;7730;49.610;11.136;2024-03-22T14:26:12;4.13;;;2.40;;
15254;SDS011;7730;49.610;11.136;2024-03-22T14:28:39;3.30;;;2.05;;
15254;SDS011;7730;49.610;11.136;2024-03-22T14:31:05;6.60;;;2.58;;
15254;SDS011;7730;49.610;11.136;2024-03-22T14:33:34;6.32;;;2.63;;
15254;SDS011;7730;49.610;11.136;2024-03-22T14:36:00;3.83;;;2.45;;